sensor_id;sensor_type;location;lat;lon;timestamp;P1;durP1;ratioP1;P2;durP2;ratioP2
3939;SDS011;1984;48.312;9.244;2022-07-29T00:00:14;4.13;;;3.27;;
3939;SDS011;1984;48.312;9.244;2022-07-29T00:02:40;3.80;;;3.50;;
3939;SDS011;1984;48.312;9.244;2022-07-29T00:05:05;5.23;;;4.07;;
3939;SDS011;1984;48.312;9.244;2022-07-29T00:07:33;4.27;;;3.80;;
3939;SDS011;1984;48.312;9.244;2022-07-29T00:09:58;3.60;;;3.30;;
3939;SDS011;1984;48.312;9.244;2022-07-29T00:12:24;4.70;;;3.70;;
3939;SDS011;1984;48.312;9.244;2022-07-29T00:14:50;3.67;;;3.37;;
3939;SDS011;1984;48.312;9.244;2022-07-29T00:17:16;4.83;;;4.27;;
3939;SDS011;1984;48.312;9.244;2022-07-29T00:19:41;6.60;;;3.77;;
3939;SDS011;1984;48.312;9.244;2022-07-29T00:22:07;4.10;;;3.30;;
3939;SDS011;1984;48.312;9.244;2022-07-29T00:24:33;4.07;;;3.77;;
3939;SDS011;1984;48.312;9.244;2022-07-29T00:26:58;4.10;;;3.70;;
3939;SDS011;1984;48.312;9.244;2022-07-29T00:29:23;4.73;;;3.73;;
3939;SDS011;1984;48.312;9.244;2022-07-29T00:31:49;6.50;;;4.13;;
3939;SDS011;1984;48.312;9.244;2022-07-29T00:34:15;4.57;;;3.53;;
3939;SDS011;1984;48.312;9.244;2022-07-29T00:36:59;3.93;;;3.63;;
3939;SDS011;1984;48.312;9.244;2022-07-29T00:39:24;3.87;;;3.43;;
3939;SDS011;1984;48.312;9.244;2022-07-29T00:41:50;3.83;;;3.47;;
3939;SDS011;1984;48.312;9.244;2022-07-29T00:44:15;4.57;;;4.07;;
3939;SDS011;1984;48.312;9.244;2022-07-29T00:46:41;5.13;;;4.50;;
3939;SDS011;1984;48.312;9.244;2022-07-29T00:49:07;4.23;;;2.97;;
3939;SDS011;1984;48.312;9.244;2022-07-29T00:51:34;5.73;;;3.87;;
3939;SDS011;1984;48.312;9.244;2022-07-29T00:54:02;7.20;;;3.83;;
3939;SDS011;1984;48.312;9.244;2022-07-29T00:56:32;8.13;;;3.70;;
3939;SDS011;1984;48.312;9.244;2022-07-29T00:58:58;7.30;;;3.97;;
3939;SDS011;1984;48.312;9.244;2022-07-29T01:01:24;4.37;;;3.93;;
3939;SDS011;1984;48.312;9.244;2022-07-29T01:03:50;5.13;;;4.33;;
3939;SDS011;1984;48.312;9.244;2022-07-29T01:06:17;5.90;;;4.60;;
3939;SDS011;1984;48.312;9.244;2022-07-29T01:08:44;3.77;;;3.40;;
3939;SDS011;1984;48.312;9.244;2022-07-29T01:11:12;4.90;;;3.97;;
3939;SDS011;1984;48.312;9.244;2022-07-29T01:13:38;5.03;;;3.67;;
3939;SDS011;1984;48.312;9.244;2022-07-29T01:16:10;8.00;;;5.30;;
3939;SDS011;1984;48.312;9.244;2022-07-29T01:18:41;8.33;;;5.20;;
3939;SDS011;1984;48.312;9.244;2022-07-29T01:24:11;7.80;;;7.00;;
3939;SDS011;1984;48.312;9.244;2022-07-29T01:26:49;8.60;;;6.80;;
3939;SDS011;1984;48.312;9.244;2022-07-29T01:29:28;7.60;;;6.20;;
3939;SDS011;1984;48.312;9.244;2022-07-29T01:35:16;10.77;;;8.20;;
3939;SDS011;1984;48.312;9.244;2022-07-29T01:40:14;12.27;;;8.13;;
3939;SDS011;1984;48.312;9.244;2022-07-29T01:42:43;13.80;;;10.10;;
3939;SDS011;1984;48.312;9.244;2022-07-29T01:48:07;12.80;;;9.47;;
3939;SDS011;1984;48.312;9.244;2022-07-29T01:51:04;16.20;;;9.87;;
3939;SDS011;1984;48.312;9.244;2022-07-29T01:53:35;12.23;;;10.00;;
3939;SDS011;1984;48.312;9.244;2022-07-29T01:56:07;13.30;;;10.20;;
3939;SDS011;1984;48.312;9.244;2022-07-29T01:58:35;12.40;;;8.73;;
3939;SDS011;1984;48.312;9.244;2022-07-29T02:01:03;11.80;;;9.13;;
3939;SDS011;1984;48.312;9.244;2022-07-29T02:03:31;12.40;;;9.40;;
3939;SDS011;1984;48.312;9.244;2022-07-29T02:06:00;13.57;;;9.87;;
3939;SDS011;1984;48.312;9.244;2022-07-29T02:08:28;14.57;;;10.10;;
3939;SDS011;1984;48.312;9.244;2022-07-29T02:10:55;15.90;;;9.83;;
3939;SDS011;1984;48.312;9.244;2022-07-29T02:13:21;12.80;;;8.90;;
3939;SDS011;1984;48.312;9.244;2022-07-29T02:15:49;11.73;;;9.50;;
3939;SDS011;1984;48.312;9.244;2022-07-29T02:18:18;14.17;;;9.23;;
3939;SDS011;1984;48.312;9.244;2022-07-29T02:20:48;12.40;;;8.20;;
3939;SDS011;1984;48.312;9.244;2022-07-29T02:23:23;10.60;;;9.07;;
3939;SDS011;1984;48.312;9.244;2022-07-29T02:25:49;12.63;;;9.47;;
3939;SDS011;1984;48.312;9.244;2022-07-29T02:28:18;12.13;;;8.73;;
3939;SDS011;1984;48.312;9.244;2022-07-29T02:30:45;10.40;;;8.43;;
3939;SDS011;1984;48.312;9.244;2022-07-29T02:33:14;20.17;;;7.87;;
3939;SDS011;1984;48.312;9.244;2022-07-29T02:35:44;16.23;;;9.80;;
3939;SDS011;1984;48.312;9.244;2022-07-29T02:38:14;14.00;;;8.90;;
3939;SDS011;1984;48.312;9.244;2022-07-29T02:41:00;13.37;;;8.80;;
3939;SDS011;1984;48.312;9.244;2022-07-29T02:43:29;12.13;;;8.60;;
3939;SDS011;1984;48.312;9.244;2022-07-29T02:45:56;11.27;;;8.47;;
3939;SDS011;1984;48.312;9.244;2022-07-29T02:48:32;10.63;;;8.53;;
3939;SDS011;1984;48.312;9.244;2022-07-29T02:51:06;9.70;;;7.70;;
3939;SDS011;1984;48.312;9.244;2022-07-29T02:53:35;9.33;;;7.43;;
3939;SDS011;1984;48.312;9.244;2022-07-29T02:56:08;15.10;;;8.10;;
3939;SDS011;1984;48.312;9.244;2022-07-29T02:58:38;9.77;;;7.70;;
3939;SDS011;1984;48.312;9.244;2022-07-29T03:01:14;10.77;;;7.90;;
3939;SDS011;1984;48.312;9.244;2022-07-29T03:03:42;11.03;;;8.33;;
3939;SDS011;1984;48.312;9.244;2022-07-29T03:06:10;14.67;;;8.10;;
3939;SDS011;1984;48.312;9.244;2022-07-29T03:08:39;11.17;;;7.97;;
3939;SDS011;1984;48.312;9.244;2022-07-29T03:11:07;9.77;;;8.10;;
3939;SDS011;1984;48.312;9.244;2022-07-29T03:13:34;10.43;;;7.37;;
3939;SDS011;1984;48.312;9.244;2022-07-29T03:16:00;13.07;;;7.80;;
3939;SDS011;1984;48.312;9.244;2022-07-29T03:18:26;9.83;;;7.80;;
3939;SDS011;1984;48.312;9.244;2022-07-29T03:20:52;11.43;;;7.30;;
3939;SDS011;1984;48.312;9.244;2022-07-29T03:23:18;9.60;;;7.80;;
3939;SDS011;1984;48.312;9.244;2022-07-29T03:25:46;10.50;;;8.30;;
3939;SDS011;1984;48.312;9.244;2022-07-29T03:28:12;15.73;;;6.57;;
3939;SDS011;1984;48.312;9.244;2022-07-29T03:30:38;14.00;;;7.63;;
3939;SDS011;1984;48.312;9.244;2022-07-29T03:33:04;11.03;;;7.80;;
3939;SDS011;1984;48.312;9.244;2022-07-29T03:35:29;8.47;;;6.73;;
3939;SDS011;1984;48.312;9.244;2022-07-29T03:37:56;8.53;;;7.57;;
3939;SDS011;1984;48.312;9.244;2022-07-29T03:40:26;8.33;;;6.13;;
3939;SDS011;1984;48.312;9.244;2022-07-29T03:42:56;9.80;;;7.80;;
3939;SDS011;1984;48.312;9.244;2022-07-29T03:45:23;11.20;;;7.47;;
3939;SDS011;1984;48.312;9.244;2022-07-29T03:47:51;10.83;;;7.60;;
3939;SDS011;1984;48.312;9.244;2022-07-29T03:50:21;10.07;;;6.73;;
3939;SDS011;1984;48.312;9.244;2022-07-29T03:52:47;9.13;;;7.30;;
3939;SDS011;1984;48.312;9.244;2022-07-29T03:55:14;9.83;;;7.50;;
3939;SDS011;1984;48.312;9.244;2022-07-29T03:57:40;8.93;;;7.57;;
3939;SDS011;1984;48.312;9.244;2022-07-29T04:00:07;9.57;;;7.10;;
3939;SDS011;1984;48.312;9.244;2022-07-29T04:02:34;13.60;;;7.13;;
3939;SDS011;1984;48.312;9.244;2022-07-29T04:05:01;9.63;;;6.03;;
3939;SDS011;1984;48.312;9.244;2022-07-29T04:07:26;14.43;;;7.00;;
3939;SDS011;1984;48.312;9.244;2022-07-29T04:09:52;17.33;;;7.80;;
3939;SDS011;1984;48.312;9.244;2022-07-29T04:12:18;8.30;;;6.77;;
3939;SDS011;1984;48.312;9.244;2022-07-29T04:14:45;8.70;;;7.10;;
3939;SDS011;1984;48.312;9.244;2022-07-29T04:17:11;8.40;;;6.70;;
3939;SDS011;1984;48.312;9.244;2022-07-29T04:19:36;9.30;;;7.30;;
3939;SDS011;1984;48.312;9.244;2022-07-29T04:22:02;8.13;;;6.60;;
3939;SDS011;1984;48.312;9.244;2022-07-29T04:24:28;7.57;;;6.47;;
3939;SDS011;1984;48.312;9.244;2022-07-29T04:26:53;8.57;;;6.70;;
3939;SDS011;1984;48.312;9.244;2022-07-29T04:29:19;8.07;;;6.40;;
3939;SDS011;1984;48.312;9.244;2022-07-29T04:31:45;12.97;;;6.50;;
3939;SDS011;1984;48.312;9.244;2022-07-29T04:34:10;7.90;;;6.43;;
3939;SDS011;1984;48.312;9.244;2022-07-29T04:36:36;13.47;;;6.80;;
3939;SDS011;1984;48.312;9.244;2022-07-29T04:39:02;9.80;;;7.33;;
3939;SDS011;1984;48.312;9.244;2022-07-29T04:41:28;26.07;;;7.10;;
3939;SDS011;1984;48.312;9.244;2022-07-29T04:43:54;9.20;;;7.40;;
3939;SDS011;1984;48.312;9.244;2022-07-29T04:46:19;12.37;;;7.20;;
3939;SDS011;1984;48.312;9.244;2022-07-29T04:48:46;11.27;;;7.53;;
3939;SDS011;1984;48.312;9.244;2022-07-29T04:51:12;13.13;;;7.90;;
3939;SDS011;1984;48.312;9.244;2022-07-29T04:53:38;28.17;;;7.00;;
3939;SDS011;1984;48.312;9.244;2022-07-29T04:56:03;41.23;;;8.23;;
3939;SDS011;1984;48.312;9.244;2022-07-29T04:58:29;9.50;;;7.23;;
3939;SDS011;1984;48.312;9.244;2022-07-29T05:00:55;10.80;;;7.83;;
3939;SDS011;1984;48.312;9.244;2022-07-29T05:03:20;10.00;;;8.03;;
3939;SDS011;1984;48.312;9.244;2022-07-29T05:05:46;19.60;;;8.37;;
3939;SDS011;1984;48.312;9.244;2022-07-29T05:08:11;20.03;;;7.67;;
3939;SDS011;1984;48.312;9.244;2022-07-29T05:10:37;14.73;;;7.70;;
3939;SDS011;1984;48.312;9.244;2022-07-29T05:13:05;32.83;;;6.93;;
3939;SDS011;1984;48.312;9.244;2022-07-29T05:15:32;67.83;;;8.47;;
3939;SDS011;1984;48.312;9.244;2022-07-29T05:17:59;19.57;;;8.50;;
3939;SDS011;1984;48.312;9.244;2022-07-29T05:20:25;32.37;;;11.13;;
3939;SDS011;1984;48.312;9.244;2022-07-29T05:22:53;13.27;;;8.27;;
3939;SDS011;1984;48.312;9.244;2022-07-29T05:25:22;10.60;;;8.33;;
3939;SDS011;1984;48.312;9.244;2022-07-29T05:27:48;25.73;;;8.07;;
3939;SDS011;1984;48.312;9.244;2022-07-29T05:30:14;10.70;;;8.53;;
3939;SDS011;1984;48.312;9.244;2022-07-29T05:32:39;10.37;;;7.43;;
3939;SDS011;1984;48.312;9.244;2022-07-29T05:35:05;9.57;;;6.90;;
3939;SDS011;1984;48.312;9.244;2022-07-29T05:37:31;8.10;;;7.03;;
3939;SDS011;1984;48.312;9.244;2022-07-29T05:39:56;7.33;;;6.30;;
3939;SDS011;1984;48.312;9.244;2022-07-29T05:42:22;7.93;;;6.03;;
3939;SDS011;1984;48.312;9.244;2022-07-29T05:44:48;7.13;;;6.40;;
3939;SDS011;1984;48.312;9.244;2022-07-29T05:47:14;8.23;;;6.00;;
3939;SDS011;1984;48.312;9.244;2022-07-29T05:49:39;7.37;;;6.10;;
3939;SDS011;1984;48.312;9.244;2022-07-29T05:52:05;6.90;;;5.90;;
3939;SDS011;1984;48.312;9.244;2022-07-29T05:54:30;6.33;;;5.60;;
3939;SDS011;1984;48.312;9.244;2022-07-29T05:56:56;8.70;;;5.80;;
3939;SDS011;1984;48.312;9.244;2022-07-29T05:59:21;6.03;;;5.43;;
3939;SDS011;1984;48.312;9.244;2022-07-29T06:01:47;6.27;;;5.10;;
3939;SDS011;1984;48.312;9.244;2022-07-29T06:04:12;8.70;;;5.00;;
3939;SDS011;1984;48.312;9.244;2022-07-29T06:06:38;11.27;;;5.70;;
3939;SDS011;1984;48.312;9.244;2022-07-29T06:09:03;5.70;;;5.20;;
3939;SDS011;1984;48.312;9.244;2022-07-29T06:11:29;5.97;;;5.10;;
3939;SDS011;1984;48.312;9.244;2022-07-29T06:13:54;6.10;;;5.50;;
3939;SDS011;1984;48.312;9.244;2022-07-29T06:16:20;11.23;;;5.70;;
3939;SDS011;1984;48.312;9.244;2022-07-29T06:18:46;4.90;;;4.50;;
3939;SDS011;1984;48.312;9.244;2022-07-29T06:21:11;6.30;;;5.70;;
3939;SDS011;1984;48.312;9.244;2022-07-29T06:23:37;5.73;;;5.17;;
3939;SDS011;1984;48.312;9.244;2022-07-29T06:26:03;8.57;;;5.33;;
3939;SDS011;1984;48.312;9.244;2022-07-29T06:28:29;5.83;;;4.37;;
3939;SDS011;1984;48.312;9.244;2022-07-29T06:30:55;5.70;;;5.07;;
3939;SDS011;1984;48.312;9.244;2022-07-29T06:33:20;6.07;;;5.20;;
3939;SDS011;1984;48.312;9.244;2022-07-29T06:35:46;5.30;;;4.80;;
3939;SDS011;1984;48.312;9.244;2022-07-29T06:38:12;4.90;;;4.40;;
3939;SDS011;1984;48.312;9.244;2022-07-29T06:40:44;4.20;;;3.80;;
3939;SDS011;1984;48.312;9.244;2022-07-29T06:43:33;4.77;;;4.30;;
3939;SDS011;1984;48.312;9.244;2022-07-29T06:46:04;9.43;;;3.83;;
3939;SDS011;1984;48.312;9.244;2022-07-29T06:48:31;3.97;;;3.57;;
3939;SDS011;1984;48.312;9.244;2022-07-29T06:50:58;4.13;;;3.83;;
3939;SDS011;1984;48.312;9.244;2022-07-29T06:53:24;4.40;;;4.00;;
3939;SDS011;1984;48.312;9.244;2022-07-29T06:55:50;4.67;;;4.20;;
3939;SDS011;1984;48.312;9.244;2022-07-29T06:58:15;3.93;;;3.63;;
3939;SDS011;1984;48.312;9.244;2022-07-29T07:00:43;6.40;;;3.97;;
3939;SDS011;1984;48.312;9.244;2022-07-29T07:03:10;3.50;;;3.20;;
3939;SDS011;1984;48.312;9.244;2022-07-29T07:05:36;3.60;;;3.30;;
3939;SDS011;1984;48.312;9.244;2022-07-29T07:08:02;4.33;;;3.47;;
3939;SDS011;1984;48.312;9.244;2022-07-29T07:10:28;3.30;;;3.03;;
3939;SDS011;1984;48.312;9.244;2022-07-29T07:12:54;4.03;;;3.40;;
3939;SDS011;1984;48.312;9.244;2022-07-29T07:15:19;4.87;;;3.10;;
3939;SDS011;1984;48.312;9.244;2022-07-29T07:17:48;3.70;;;2.70;;
3939;SDS011;1984;48.312;9.244;2022-07-29T07:20:14;3.30;;;2.97;;
3939;SDS011;1984;48.312;9.244;2022-07-29T07:22:40;13.83;;;3.80;;
3939;SDS011;1984;48.312;9.244;2022-07-29T07:25:06;3.50;;;3.20;;
3939;SDS011;1984;48.312;9.244;2022-07-29T07:27:32;3.33;;;2.87;;
3939;SDS011;1984;48.312;9.244;2022-07-29T07:29:57;2.60;;;2.40;;
3939;SDS011;1984;48.312;9.244;2022-07-29T07:32:23;7.10;;;3.07;;
3939;SDS011;1984;48.312;9.244;2022-07-29T07:34:49;11.03;;;3.20;;
3939;SDS011;1984;48.312;9.244;2022-07-29T07:37:14;2.50;;;2.40;;
3939;SDS011;1984;48.312;9.244;2022-07-29T07:39:40;6.90;;;3.07;;
3939;SDS011;1984;48.312;9.244;2022-07-29T07:42:06;2.77;;;2.57;;
3939;SDS011;1984;48.312;9.244;2022-07-29T07:44:31;3.30;;;3.03;;
3939;SDS011;1984;48.312;9.244;2022-07-29T07:46:57;2.90;;;2.70;;
3939;SDS011;1984;48.312;9.244;2022-07-29T07:49:23;4.47;;;2.17;;
3939;SDS011;1984;48.312;9.244;2022-07-29T07:51:48;4.90;;;2.80;;
3939;SDS011;1984;48.312;9.244;2022-07-29T07:54:14;2.50;;;2.30;;
3939;SDS011;1984;48.312;9.244;2022-07-29T07:56:40;2.10;;;2.00;;
3939;SDS011;1984;48.312;9.244;2022-07-29T07:59:05;2.57;;;2.17;;
3939;SDS011;1984;48.312;9.244;2022-07-29T08:01:31;2.43;;;1.97;;
3939;SDS011;1984;48.312;9.244;2022-07-29T08:03:56;2.60;;;2.20;;
3939;SDS011;1984;48.312;9.244;2022-07-29T08:06:22;4.33;;;2.40;;
3939;SDS011;1984;48.312;9.244;2022-07-29T08:08:49;5.33;;;2.37;;
3939;SDS011;1984;48.312;9.244;2022-07-29T08:11:15;3.20;;;2.20;;
3939;SDS011;1984;48.312;9.244;2022-07-29T08:13:42;3.17;;;2.23;;
3939;SDS011;1984;48.312;9.244;2022-07-29T08:16:08;4.07;;;2.33;;
3939;SDS011;1984;48.312;9.244;2022-07-29T08:18:37;2.20;;;2.10;;
3939;SDS011;1984;48.312;9.244;2022-07-29T08:21:04;1.80;;;1.70;;
3939;SDS011;1984;48.312;9.244;2022-07-29T08:23:30;3.00;;;2.30;;
3939;SDS011;1984;48.312;9.244;2022-07-29T08:26:03;5.37;;;2.13;;
3939;SDS011;1984;48.312;9.244;2022-07-29T08:28:35;2.20;;;2.00;;
3939;SDS011;1984;48.312;9.244;2022-07-29T08:31:04;2.17;;;1.97;;
3939;SDS011;1984;48.312;9.244;2022-07-29T08:33:30;10.70;;;2.20;;
3939;SDS011;1984;48.312;9.244;2022-07-29T08:35:56;2.40;;;2.20;;
3939;SDS011;1984;48.312;9.244;2022-07-29T08:38:21;3.13;;;2.03;;
3939;SDS011;1984;48.312;9.244;2022-07-29T08:40:47;4.63;;;2.10;;
3939;SDS011;1984;48.312;9.244;2022-07-29T08:43:12;2.20;;;2.00;;
3939;SDS011;1984;48.312;9.244;2022-07-29T08:45:43;1.73;;;1.63;;
3939;SDS011;1984;48.312;9.244;2022-07-29T08:48:14;6.60;;;2.13;;
3939;SDS011;1984;48.312;9.244;2022-07-29T08:50:41;7.30;;;2.20;;
3939;SDS011;1984;48.312;9.244;2022-07-29T08:53:09;2.50;;;2.10;;
3939;SDS011;1984;48.312;9.244;2022-07-29T08:55:38;3.00;;;1.97;;
3939;SDS011;1984;48.312;9.244;2022-07-29T08:58:11;2.80;;;2.60;;
3939;SDS011;1984;48.312;9.244;2022-07-29T09:00:40;5.73;;;2.93;;
3939;SDS011;1984;48.312;9.244;2022-07-29T09:03:08;5.00;;;2.97;;
3939;SDS011;1984;48.312;9.244;2022-07-29T09:05:36;4.63;;;2.50;;
3939;SDS011;1984;48.312;9.244;2022-07-29T09:08:06;4.17;;;2.50;;
3939;SDS011;1984;48.312;9.244;2022-07-29T09:10:31;4.07;;;2.53;;
3939;SDS011;1984;48.312;9.244;2022-07-29T09:12:57;3.20;;;2.70;;
3939;SDS011;1984;48.312;9.244;2022-07-29T09:15:23;8.63;;;2.93;;
3939;SDS011;1984;48.312;9.244;2022-07-29T09:17:49;3.53;;;2.77;;
3939;SDS011;1984;48.312;9.244;2022-07-29T09:20:15;3.60;;;3.20;;
3939;SDS011;1984;48.312;9.244;2022-07-29T09:22:43;3.00;;;2.73;;
3939;SDS011;1984;48.312;9.244;2022-07-29T09:25:13;21.73;;;2.90;;
3939;SDS011;1984;48.312;9.244;2022-07-29T09:27:39;3.53;;;2.97;;
3939;SDS011;1984;48.312;9.244;2022-07-29T09:30:09;3.30;;;2.23;;
3939;SDS011;1984;48.312;9.244;2022-07-29T09:32:54;5.83;;;2.47;;
3939;SDS011;1984;48.312;9.244;2022-07-29T09:35:22;12.77;;;2.30;;
3939;SDS011;1984;48.312;9.244;2022-07-29T09:37:49;4.17;;;2.60;;
3939;SDS011;1984;48.312;9.244;2022-07-29T09:40:16;5.87;;;3.13;;
3939;SDS011;1984;48.312;9.244;2022-07-29T09:42:44;3.30;;;2.33;;
3939;SDS011;1984;48.312;9.244;2022-07-29T09:45:10;3.63;;;2.60;;
3939;SDS011;1984;48.312;9.244;2022-07-29T09:47:46;3.07;;;2.83;;
3939;SDS011;1984;48.312;9.244;2022-07-29T09:50:14;2.77;;;2.57;;
3939;SDS011;1984;48.312;9.244;2022-07-29T09:52:44;5.30;;;2.60;;
3939;SDS011;1984;48.312;9.244;2022-07-29T09:55:14;6.20;;;2.30;;
3939;SDS011;1984;48.312;9.244;2022-07-29T09:57:40;5.60;;;2.70;;
3939;SDS011;1984;48.312;9.244;2022-07-29T10:00:16;2.70;;;2.13;;
3939;SDS011;1984;48.312;9.244;2022-07-29T10:02:44;4.07;;;2.30;;
3939;SDS011;1984;48.312;9.244;2022-07-29T10:05:19;3.83;;;1.93;;
3939;SDS011;1984;48.312;9.244;2022-07-29T10:07:52;3.17;;;2.70;;
3939;SDS011;1984;48.312;9.244;2022-07-29T10:10:23;2.85;;;2.33;;
3939;SDS011;1984;48.312;9.244;2022-07-29T10:15:19;2.60;;;2.10;;
3939;SDS011;1984;48.312;9.244;2022-07-29T10:17:46;3.03;;;2.40;;
3939;SDS011;1984;48.312;9.244;2022-07-29T10:20:13;5.40;;;2.50;;
3939;SDS011;1984;48.312;9.244;2022-07-29T10:22:39;3.63;;;2.57;;
3939;SDS011;1984;48.312;9.244;2022-07-29T10:25:06;2.50;;;2.20;;
3939;SDS011;1984;48.312;9.244;2022-07-29T10:27:34;4.00;;;2.50;;
3939;SDS011;1984;48.312;9.244;2022-07-29T10:30:00;2.43;;;2.33;;
3939;SDS011;1984;48.312;9.244;2022-07-29T10:32:33;2.67;;;2.47;;
3939;SDS011;1984;48.312;9.244;2022-07-29T10:38:09;4.00;;;3.07;;
3939;SDS011;1984;48.312;9.244;2022-07-29T10:40:46;3.30;;;2.70;;
3939;SDS011;1984;48.312;9.244;2022-07-29T10:43:51;3.67;;;2.43;;
3939;SDS011;1984;48.312;9.244;2022-07-29T10:46:19;3.63;;;3.03;;
3939;SDS011;1984;48.312;9.244;2022-07-29T10:49:04;3.20;;;2.90;;
3939;SDS011;1984;48.312;9.244;2022-07-29T10:51:50;7.00;;;4.97;;
3939;SDS011;1984;48.312;9.244;2022-07-29T10:54:18;3.30;;;3.10;;
3939;SDS011;1984;48.312;9.244;2022-07-29T11:05:05;4.53;;;3.50;;
3939;SDS011;1984;48.312;9.244;2022-07-29T11:07:31;4.07;;;3.60;;
3939;SDS011;1984;48.312;9.244;2022-07-29T11:15:09;7.33;;;3.30;;
3939;SDS011;1984;48.312;9.244;2022-07-29T11:28:39;3.83;;;2.13;;
3939;SDS011;1984;48.312;9.244;2022-07-29T11:31:16;3.97;;;2.50;;
3939;SDS011;1984;48.312;9.244;2022-07-29T11:34:15;3.90;;;2.73;;
3939;SDS011;1984;48.312;9.244;2022-07-29T11:47:22;3.37;;;3.17;;
3939;SDS011;1984;48.312;9.244;2022-07-29T11:49:48;2.30;;;2.20;;
3939;SDS011;1984;48.312;9.244;2022-07-29T11:52:16;5.63;;;2.83;;
3939;SDS011;1984;48.312;9.244;2022-07-29T11:54:42;4.43;;;2.63;;
3939;SDS011;1984;48.312;9.244;2022-07-29T11:57:08;2.20;;;2.10;;
3939;SDS011;1984;48.312;9.244;2022-07-29T11:59:40;2.00;;;1.90;;
3939;SDS011;1984;48.312;9.244;2022-07-29T12:02:07;9.30;;;2.20;;
3939;SDS011;1984;48.312;9.244;2022-07-29T12:04:34;1.80;;;1.70;;
3939;SDS011;1984;48.312;9.244;2022-07-29T12:07:13;4.33;;;2.37;;
3939;SDS011;1984;48.312;9.244;2022-07-29T12:09:38;2.00;;;1.90;;
3939;SDS011;1984;48.312;9.244;2022-07-29T12:12:04;4.77;;;2.37;;
3939;SDS011;1984;48.312;9.244;2022-07-29T12:14:30;2.30;;;2.10;;
3939;SDS011;1984;48.312;9.244;2022-07-29T12:16:57;4.03;;;2.33;;
3939;SDS011;1984;48.312;9.244;2022-07-29T12:19:24;2.30;;;2.10;;
3939;SDS011;1984;48.312;9.244;2022-07-29T12:21:51;5.50;;;2.57;;
3939;SDS011;1984;48.312;9.244;2022-07-29T12:24:23;3.10;;;2.30;;
3939;SDS011;1984;48.312;9.244;2022-07-29T12:26:49;2.40;;;2.30;;
3939;SDS011;1984;48.312;9.244;2022-07-29T12:29:20;4.80;;;2.30;;
3939;SDS011;1984;48.312;9.244;2022-07-29T12:31:46;2.43;;;2.03;;
3939;SDS011;1984;48.312;9.244;2022-07-29T12:34:12;2.10;;;1.97;;
3939;SDS011;1984;48.312;9.244;2022-07-29T12:36:40;5.07;;;1.87;;
3939;SDS011;1984;48.312;9.244;2022-07-29T12:39:07;3.17;;;2.00;;
3939;SDS011;1984;48.312;9.244;2022-07-29T12:41:34;1.70;;;1.60;;
3939;SDS011;1984;48.312;9.244;2022-07-29T12:44:00;2.93;;;1.50;;
3939;SDS011;1984;48.312;9.244;2022-07-29T12:46:26;1.93;;;1.83;;
3939;SDS011;1984;48.312;9.244;2022-07-29T12:48:52;1.83;;;1.50;;
3939;SDS011;1984;48.312;9.244;2022-07-29T12:51:27;3.93;;;2.33;;
3939;SDS011;1984;48.312;9.244;2022-07-29T12:54:07;1.90;;;1.80;;
3939;SDS011;1984;48.312;9.244;2022-07-29T12:56:38;3.87;;;1.90;;
3939;SDS011;1984;48.312;9.244;2022-07-29T12:59:13;2.30;;;2.10;;
3939;SDS011;1984;48.312;9.244;2022-07-29T13:01:43;2.63;;;2.43;;
3939;SDS011;1984;48.312;9.244;2022-07-29T13:04:10;6.30;;;2.60;;
3939;SDS011;1984;48.312;9.244;2022-07-29T13:06:40;6.17;;;2.67;;
3939;SDS011;1984;48.312;9.244;2022-07-29T13:11:38;2.60;;;2.40;;
3939;SDS011;1984;48.312;9.244;2022-07-29T13:14:07;2.70;;;2.50;;
3939;SDS011;1984;48.312;9.244;2022-07-29T13:16:34;3.00;;;2.80;;
3939;SDS011;1984;48.312;9.244;2022-07-29T13:21:30;15.10;;;3.10;;
3939;SDS011;1984;48.312;9.244;2022-07-29T13:23:55;2.90;;;2.63;;
3939;SDS011;1984;48.312;9.244;2022-07-29T13:26:21;3.00;;;2.70;;
3939;SDS011;1984;48.312;9.244;2022-07-29T13:28:46;4.07;;;3.00;;
3939;SDS011;1984;48.312;9.244;2022-07-29T13:31:12;2.93;;;2.43;;
3939;SDS011;1984;48.312;9.244;2022-07-29T13:33:37;2.73;;;2.50;;
3939;SDS011;1984;48.312;9.244;2022-07-29T13:36:03;2.83;;;2.20;;
3939;SDS011;1984;48.312;9.244;2022-07-29T13:38:28;4.10;;;3.17;;
3939;SDS011;1984;48.312;9.244;2022-07-29T13:40:54;4.13;;;2.50;;
3939;SDS011;1984;48.312;9.244;2022-07-29T13:43:19;3.97;;;3.10;;
3939;SDS011;1984;48.312;9.244;2022-07-29T13:45:45;4.00;;;2.97;;
3939;SDS011;1984;48.312;9.244;2022-07-29T13:48:10;3.00;;;2.70;;
3939;SDS011;1984;48.312;9.244;2022-07-29T13:50:36;3.83;;;2.83;;
3939;SDS011;1984;48.312;9.244;2022-07-29T13:53:01;5.33;;;3.00;;
3939;SDS011;1984;48.312;9.244;2022-07-29T13:55:27;3.13;;;2.83;;
3939;SDS011;1984;48.312;9.244;2022-07-29T13:57:52;4.00;;;2.47;;
3939;SDS011;1984;48.312;9.244;2022-07-29T14:00:18;4.27;;;2.40;;
3939;SDS011;1984;48.312;9.244;2022-07-29T14:02:44;7.20;;;3.07;;
3939;SDS011;1984;48.312;9.244;2022-07-29T14:05:10;2.70;;;2.50;;
3939;SDS011;1984;48.312;9.244;2022-07-29T14:07:36;2.77;;;2.43;;
3939;SDS011;1984;48.312;9.244;2022-07-29T14:10:03;3.47;;;2.27;;
3939;SDS011;1984;48.312;9.244;2022-07-29T14:12:29;2.60;;;2.30;;
3939;SDS011;1984;48.312;9.244;2022-07-29T14:14:55;2.43;;;2.23;;
3939;SDS011;1984;48.312;9.244;2022-07-29T14:17:21;5.00;;;2.80;;
3939;SDS011;1984;48.312;9.244;2022-07-29T14:19:46;3.67;;;2.40;;
3939;SDS011;1984;48.312;9.244;2022-07-29T14:22:12;4.90;;;2.73;;
3939;SDS011;1984;48.312;9.244;2022-07-29T14:24:37;3.37;;;2.83;;
3939;SDS011;1984;48.312;9.244;2022-07-29T14:27:04;3.20;;;3.00;;
3939;SDS011;1984;48.312;9.244;2022-07-29T14:29:30;3.13;;;2.93;;
3939;SDS011;1984;48.312;9.244;2022-07-29T14:31:55;5.40;;;3.67;;
3939;SDS011;1984;48.312;9.244;2022-07-29T14:34:21;3.47;;;3.17;;
3939;SDS011;1984;48.312;9.244;2022-07-29T14:36:46;2.63;;;2.40;;
3939;SDS011;1984;48.312;9.244;2022-07-29T14:39:12;6.07;;;3.20;;
3939;SDS011;1984;48.312;9.244;2022-07-29T14:41:37;3.03;;;2.70;;
3939;SDS011;1984;48.312;9.244;2022-07-29T14:44:03;3.13;;;2.87;;
3939;SDS011;1984;48.312;9.244;2022-07-29T14:46:29;8.73;;;3.10;;
3939;SDS011;1984;48.312;9.244;2022-07-29T14:48:54;3.73;;;3.00;;
3939;SDS011;1984;48.312;9.244;2022-07-29T14:51:20;3.87;;;3.30;;
3939;SDS011;1984;48.312;9.244;2022-07-29T14:53:45;5.10;;;3.00;;
3939;SDS011;1984;48.312;9.244;2022-07-29T14:56:11;3.00;;;2.80;;
3939;SDS011;1984;48.312;9.244;2022-07-29T14:58:37;4.80;;;3.40;;
3939;SDS011;1984;48.312;9.244;2022-07-29T15:01:02;4.93;;;3.07;;
3939;SDS011;1984;48.312;9.244;2022-07-29T15:03:28;6.03;;;3.93;;
3939;SDS011;1984;48.312;9.244;2022-07-29T15:05:53;2.70;;;2.50;;
3939;SDS011;1984;48.312;9.244;2022-07-29T15:08:19;2.80;;;2.60;;
3939;SDS011;1984;48.312;9.244;2022-07-29T15:10:45;2.70;;;2.50;;
3939;SDS011;1984;48.312;9.244;2022-07-29T15:13:11;4.70;;;3.37;;
3939;SDS011;1984;48.312;9.244;2022-07-29T15:15:36;4.77;;;3.30;;
3939;SDS011;1984;48.312;9.244;2022-07-29T15:18:02;3.30;;;3.10;;
3939;SDS011;1984;48.312;9.244;2022-07-29T15:20:28;4.93;;;2.70;;
3939;SDS011;1984;48.312;9.244;2022-07-29T15:22:54;3.67;;;3.37;;
3939;SDS011;1984;48.312;9.244;2022-07-29T15:25:20;3.20;;;2.90;;
3939;SDS011;1984;48.312;9.244;2022-07-29T15:27:50;3.53;;;3.20;;
3939;SDS011;1984;48.312;9.244;2022-07-29T15:30:16;5.00;;;2.90;;
3939;SDS011;1984;48.312;9.244;2022-07-29T15:32:42;3.87;;;3.53;;
3939;SDS011;1984;48.312;9.244;2022-07-29T15:35:08;3.70;;;3.40;;
3939;SDS011;1984;48.312;9.244;2022-07-29T15:37:35;4.37;;;3.67;;
3939;SDS011;1984;48.312;9.244;2022-07-29T15:40:01;7.53;;;3.10;;
3939;SDS011;1984;48.312;9.244;2022-07-29T15:42:27;3.67;;;3.20;;
3939;SDS011;1984;48.312;9.244;2022-07-29T15:44:53;8.43;;;3.70;;
3939;SDS011;1984;48.312;9.244;2022-07-29T15:47:20;4.07;;;3.20;;
3939;SDS011;1984;48.312;9.244;2022-07-29T15:49:45;7.17;;;3.60;;
3939;SDS011;1984;48.312;9.244;2022-07-29T15:52:11;4.53;;;3.10;;
3939;SDS011;1984;48.312;9.244;2022-07-29T15:54:37;4.40;;;3.07;;
3939;SDS011;1984;48.312;9.244;2022-07-29T15:57:05;6.17;;;3.30;;
3939;SDS011;1984;48.312;9.244;2022-07-29T15:59:32;3.40;;;3.13;;
3939;SDS011;1984;48.312;9.244;2022-07-29T16:01:58;3.33;;;3.00;;
3939;SDS011;1984;48.312;9.244;2022-07-29T16:04:24;5.20;;;3.50;;
3939;SDS011;1984;48.312;9.244;2022-07-29T16:06:50;8.90;;;3.23;;
3939;SDS011;1984;48.312;9.244;2022-07-29T16:09:16;11.90;;;3.07;;
3939;SDS011;1984;48.312;9.244;2022-07-29T16:11:42;6.10;;;3.20;;